Alamo, GA (30411)

2:27 AM EST on February 06, 2016 (GMT -0500)
Mock Hill | | Change Station
CLOSE
Current Station
Personal Weather Station
Location: Mount Vernon, GA
Elevation: 210 ft
Nearby Weather Stations

Elev 210 ft 32.17 °N, 82.59 °W | Updated 52 seconds ago

Partly Cloudy
Partly Cloudy
33.8 °F
Feels Like 34 °F
N
0.0
Wind Variable Wind from NW

Today
High -- | Low -- °F
--% Chance of Precip.
Yesterday
High -- | Low -- °F
Precip. -- in
Pressure 30.35 in
Visibility 10.0 miles
Clouds Clear
Windchill 34 °F
Dew Point 31 °F
Humidity 88%
Rainfall 0.00 in
Snow Depth Not available.
7:21 AM 6:09 PM
Waning Crescent, 7% visible
METAR KAZE 060715Z AUTO 08004KT 10SM CLR 04/M01 A3035 RMK AO2 T00351010
Pressure 30.35 in
Visibility 10.0 miles
Clouds Clear
Windchill 34 °F
Dew Point 31 °F
Humidity 88%
Rainfall 0.00 in
Snow Depth Not available.
7:21 AM 6:09 PM
Waning Crescent, 7% visible
METAR KAZE 060715Z AUTO 08004KT 10SM CLR 04/M01 A3035 RMK AO2 T00351010

10-Day Weather Forecast

Almanac

Astronomy

Feb. 06, 2016 Rise Set
Actual Time
Civil Twilight
Nautical Twilight
Astronomical Twilight
Moon
Length of Visible Light
Length of Day
Tomorrow will be .
, % of the Moon is Illuminated

Today's Extremes

State Highs State Lows

Community

WunderPhotos

Upload Photos

1,890,933 photos uploaded!

WunderBlog® & News

Nearby

Air Quality

  Air Quality AQ Index Pollutant
Not available.

Snow Depth

Station Depth Elevation

Earthquake Activity

City Distance Mag. Time & Date
Minimum magnitude displayed is 2.5.

Coastal Water Temperatures

Place Temperature

Stations

Nearby Weather Stations

Station Location Temp. Windchill Dew Point Humidity Wind Precip. Elev Updated Type
                   

Watches & Warnings

There are currently no watches in effect.